createdAt,value
2019-03-06T00:03:47.458Z,5.50
2019-03-06T00:08:52.459Z,6.57
2019-03-06T00:13:57.470Z,7.23
2019-03-06T00:19:02.469Z,9.60
2019-03-06T00:24:07.500Z,7.17
2019-03-06T00:29:12.520Z,13.07
2019-03-06T00:34:17.560Z,11.07
2019-03-06T00:39:23.260Z,11.77
2019-03-06T00:44:28.302Z,8.53
2019-03-06T00:49:33.308Z,9.97
2019-03-06T00:54:38.305Z,10.83
2019-03-06T00:59:43.311Z,8.63
2019-03-06T01:04:48.361Z,9.57
2019-03-06T01:09:53.371Z,11.23
2019-03-06T01:14:58.384Z,13.50
2019-03-06T01:20:03.698Z,12.03
2019-03-06T01:25:09.334Z,11.20
2019-03-06T01:30:16.423Z,17.30
2019-03-06T01:35:52.352Z,17.13
2019-03-06T01:41:19.355Z,14.17
2019-03-06T01:46:24.650Z,16.20
2019-03-06T01:51:29.658Z,14.23
2019-03-06T01:56:34.676Z,13.10
2019-03-06T02:01:39.700Z,17.83
2019-03-06T02:06:45.309Z,12.63
2019-03-06T02:11:50.295Z,13.13
2019-03-06T02:16:55.344Z,13.10
2019-03-06T02:22:00.436Z,13.00
2019-03-06T02:27:06.000Z,17.73
2019-03-06T02:32:11.055Z,15.80
2019-03-06T02:37:16.054Z,11.93
2019-03-06T02:42:21.064Z,12.70
2019-03-06T02:47:26.094Z,17.93
2019-03-06T02:52:31.270Z,11.03
2019-03-06T02:57:36.883Z,13.03
2019-03-06T03:02:51.371Z,14.23
2019-03-06T03:07:56.566Z,15.43
2019-03-06T03:13:01.568Z,14.20
2019-03-06T03:18:06.674Z,12.87
2019-03-06T03:23:11.720Z,14.13
2019-03-06T03:28:19.668Z,11.97
2019-03-06T03:33:23.360Z,15.67
2019-03-06T03:38:28.378Z,15.93
2019-03-06T03:43:33.418Z,16.87
2019-03-06T03:48:38.421Z,17.63
2019-03-06T03:53:43.440Z,17.83
2019-03-06T03:58:48.433Z,15.50
2019-03-06T04:03:53.438Z,19.13
2019-03-06T04:08:58.476Z,20.80
2019-03-06T04:14:03.469Z,21.60
2019-03-06T04:19:08.817Z,23.80
2019-03-06T04:24:13.873Z,23.13
2019-03-06T04:29:19.188Z,33.13
2019-03-06T04:34:24.194Z,27.20
2019-03-06T04:39:30.295Z,27.47
2019-03-06T04:44:35.275Z,34.00
2019-03-06T04:49:40.613Z,32.43
2019-03-06T04:54:47.078Z,29.90
2019-03-06T04:59:52.523Z,30.33
2019-03-06T05:04:57.523Z,28.00
2019-03-06T05:10:02.630Z,31.03
2019-03-06T05:15:09.044Z,31.27
2019-03-06T05:20:14.075Z,30.87
2019-03-06T05:25:19.125Z,33.33
2019-03-06T05:30:26.590Z,30.23
2019-03-06T05:35:37.147Z,31.27
2019-03-06T05:40:42.155Z,30.43
2019-03-06T05:45:47.167Z,34.10
2019-03-06T05:50:52.196Z,31.83
2019-03-06T05:55:57.231Z,34.07
2019-03-06T06:01:02.283Z,32.10
2019-03-06T06:06:07.287Z,32.87
2019-03-06T06:11:12.300Z,29.10
2019-03-06T06:16:17.317Z,35.83
2019-03-06T06:21:39.872Z,31.50
2019-03-06T06:26:46.527Z,30.47
2019-03-06T06:31:51.497Z,28.27
2019-03-06T06:36:56.600Z,31.43
2019-03-06T06:42:01.661Z,31.33
2019-03-06T06:47:06.663Z,32.47
2019-03-06T06:53:07.979Z,31.63
2019-03-06T06:58:32.305Z,26.70
2019-03-06T07:04:35.174Z,26.93
2019-03-06T07:09:57.932Z,32.93
2019-03-06T07:15:27.943Z,25.47
2019-03-06T07:20:50.261Z,30.30
2019-03-06T07:26:14.248Z,27.50
2019-03-06T07:31:30.547Z,28.33
2019-03-06T07:37:03.540Z,20.97
2019-03-06T07:42:30.475Z,23.93
2019-03-06T07:47:53.425Z,23.90
2019-03-06T07:53:48.758Z,21.70
2019-03-06T07:58:55.940Z,24.67
2019-03-06T08:04:09.561Z,23.50
2019-03-06T08:09:18.060Z,21.73
2019-03-06T08:14:56.967Z,22.80
2019-03-06T08:20:11.273Z,18.87
2019-03-06T08:25:28.098Z,19.87
2019-03-06T08:30:37.322Z,21.93
2019-03-06T08:35:42.404Z,15.23
2019-03-06T08:40:47.399Z,17.87
2019-03-06T08:46:11.920Z,17.97
2019-03-06T08:51:45.206Z,19.20
2019-03-06T08:57:09.179Z,16.30
2019-03-06T09:02:40.703Z,18.93
2019-03-06T09:07:59.931Z,15.10
2019-03-06T09:13:36.164Z,13.77
2019-03-06T09:18:59.074Z,19.57
2019-03-06T09:24:23.230Z,29.70
2019-03-06T09:29:56.307Z,14.00
2019-03-06T09:35:16.118Z,14.80
2019-03-06T09:40:29.003Z,12.20
2019-03-06T09:45:57.980Z,14.93
2019-03-06T09:51:22.862Z,12.83
2019-03-06T09:56:45.679Z,11.07
2019-03-06T10:02:17.585Z,13.17
2019-03-06T10:07:33.501Z,13.30
2019-03-06T10:12:57.403Z,12.03
2019-03-06T10:18:10.159Z,11.10
2019-03-06T10:23:15.200Z,15.13
2019-03-06T10:28:27.521Z,11.67
2019-03-06T10:33:26.868Z,10.33
2019-03-06T10:38:32.615Z,9.07
2019-03-06T10:43:38.235Z,8.60
2019-03-06T10:48:43.508Z,9.37
2019-03-06T10:53:48.819Z,10.57
2019-03-06T10:58:56.944Z,7.63
2019-03-06T11:04:23.662Z,7.90
2019-03-06T11:09:29.514Z,6.73
2019-03-06T11:14:34.603Z,8.67
2019-03-06T11:19:39.913Z,8.07
2019-03-06T11:24:44.943Z,6.40
2019-03-06T11:29:49.944Z,5.50
2019-03-06T11:34:54.948Z,5.47
2019-03-06T11:39:59.967Z,9.10
2019-03-06T11:45:06.114Z,5.67
2019-03-06T11:50:11.800Z,4.37
2019-03-06T11:55:17.584Z,6.47
2019-03-06T12:00:38.202Z,8.40
2019-03-06T12:05:43.519Z,3.83
2019-03-06T12:10:49.123Z,4.90
2019-03-06T12:15:54.136Z,5.87
2019-03-06T12:20:59.784Z,5.57
2019-03-06T12:26:05.248Z,6.07
2019-03-06T12:31:11.549Z,5.33
2019-03-06T12:36:16.583Z,4.07
2019-03-06T12:41:21.576Z,3.67
2019-03-06T12:46:27.027Z,3.07
2019-03-06T12:51:32.737Z,2.67
2019-03-06T12:56:38.063Z,7.83
2019-03-06T13:01:43.221Z,5.80
2019-03-06T13:06:48.184Z,4.60
2019-03-06T13:11:55.036Z,4.63
2019-03-06T13:17:00.443Z,2.80
2019-03-06T13:22:11.085Z,4.13
2019-03-06T13:27:12.709Z,3.27
2019-03-06T13:32:18.020Z,2.97
2019-03-06T13:37:24.124Z,4.30
2019-03-06T13:42:30.624Z,3.97
2019-03-06T13:47:35.617Z,4.47
2019-03-06T13:52:40.692Z,3.90
2019-03-06T13:57:49.565Z,7.50
2019-03-06T14:02:54.310Z,3.80
2019-03-06T14:07:59.329Z,4.63
2019-03-06T14:13:05.421Z,3.63
2019-03-06T14:18:12.733Z,4.90
2019-03-06T14:23:17.903Z,4.43
2019-03-06T14:28:23.028Z,3.77
2019-03-06T14:33:28.081Z,3.10
2019-03-06T14:38:33.372Z,3.87
2019-03-06T14:43:38.589Z,2.30
2019-03-06T14:48:43.848Z,4.07
2019-03-06T14:53:50.634Z,3.20
2019-03-06T14:58:55.702Z,4.67
2019-03-06T15:04:00.721Z,3.27
2019-03-06T15:09:27.624Z,4.30
2019-03-06T15:14:36.088Z,3.70
2019-03-06T15:19:40.646Z,6.87
2019-03-06T15:24:47.637Z,7.23
2019-03-06T15:29:52.752Z,7.37
2019-03-06T15:34:57.838Z,3.87
2019-03-06T15:40:05.481Z,8.33
2019-03-06T15:45:11.822Z,7.13
2019-03-06T15:50:17.428Z,17.60
2019-03-06T15:55:27.750Z,7.47
2019-03-06T16:00:34.476Z,6.80
2019-03-06T16:05:39.948Z,7.47
2019-03-06T16:10:46.827Z,8.03
2019-03-06T16:15:51.863Z,3.50
2019-03-06T16:20:57.145Z,3.57
2019-03-06T16:26:02.503Z,3.47
2019-03-06T16:31:07.666Z,8.10
2019-03-06T16:36:13.096Z,6.13
2019-03-06T16:41:18.097Z,5.83
2019-03-06T16:46:23.101Z,8.57
2019-03-06T16:51:28.868Z,5.57
2019-03-06T16:56:33.856Z,4.67
2019-03-06T17:01:40.823Z,4.50
2019-03-06T17:06:45.697Z,3.87
2019-03-06T17:11:51.058Z,5.43
2019-03-06T17:16:57.881Z,8.17
2019-03-06T17:22:03.181Z,5.57
2019-03-06T17:27:08.237Z,6.90
2019-03-06T17:32:13.650Z,5.33
2019-03-06T17:37:19.336Z,10.17
2019-03-06T17:42:24.728Z,3.70
2019-03-06T17:47:29.774Z,2.87
2019-03-06T17:52:36.441Z,5.93
2019-03-06T17:57:41.455Z,3.00
2019-03-06T18:02:46.449Z,4.00
2019-03-06T18:07:51.564Z,4.07
2019-03-06T18:12:59.326Z,5.03
2019-03-06T18:18:04.030Z,3.47
2019-03-06T18:23:09.147Z,5.43
2019-03-06T18:28:14.632Z,3.30
2019-03-06T18:33:19.902Z,2.03
2019-03-06T18:38:24.843Z,2.60
2019-03-06T18:43:29.922Z,3.67
2019-03-06T18:48:36.955Z,6.87
2019-03-06T18:53:42.164Z,4.57
2019-03-06T18:58:47.506Z,4.80
2019-03-06T19:03:55.910Z,5.80
2019-03-06T19:09:00.869Z,5.93
2019-03-06T19:14:06.987Z,4.73
2019-03-06T19:19:12.704Z,3.93
2019-03-06T19:24:17.885Z,4.97
2019-03-06T19:29:22.917Z,4.60
2019-03-06T19:34:27.944Z,6.97
2019-03-06T19:39:33.262Z,4.20
2019-03-06T19:44:38.332Z,4.07
2019-03-06T19:49:43.693Z,4.77
2019-03-06T19:54:49.748Z,4.57
2019-03-06T19:59:55.029Z,5.37
2019-03-06T20:05:00.149Z,6.43
2019-03-06T20:10:05.444Z,5.77
2019-03-06T20:15:11.081Z,7.20
2019-03-06T20:20:17.162Z,7.20
2019-03-06T20:25:22.804Z,7.43
2019-03-06T20:30:28.619Z,7.33
2019-03-06T20:35:33.605Z,7.13
2019-03-06T20:40:38.608Z,8.67
2019-03-06T20:45:43.891Z,7.50
2019-03-06T20:50:49.014Z,7.50
2019-03-06T20:55:54.303Z,9.20
2019-03-06T21:00:59.256Z,9.17
2019-03-06T21:06:04.721Z,17.17
2019-03-06T21:11:09.844Z,11.57
2019-03-06T21:16:14.848Z,10.40
2019-03-06T21:21:19.949Z,12.73
2019-03-06T21:26:24.968Z,12.17
2019-03-06T21:31:30.297Z,12.57
2019-03-06T21:36:35.260Z,12.40
2019-03-06T21:41:41.356Z,12.30
2019-03-06T21:46:46.449Z,12.27
2019-03-06T21:51:54.314Z,12.67
2019-03-06T21:57:00.195Z,11.03
2019-03-06T22:02:06.147Z,12.73
2019-03-06T22:07:11.707Z,13.97
2019-03-06T22:12:18.474Z,11.43
2019-03-06T22:17:23.521Z,10.63
2019-03-06T22:22:29.297Z,14.03
2019-03-06T22:27:34.349Z,10.00
2019-03-06T22:32:39.511Z,13.77
2019-03-06T22:37:44.755Z,10.00
2019-03-06T22:42:49.770Z,11.13
2019-03-06T22:47:54.907Z,10.70
2019-03-06T22:53:02.427Z,10.10
2019-03-06T22:58:07.478Z,15.90
2019-03-06T23:03:13.409Z,15.67
2019-03-06T23:08:18.453Z,14.57
2019-03-06T23:13:23.759Z,13.93
2019-03-06T23:18:28.800Z,16.60
2019-03-06T23:23:35.603Z,16.23
2019-03-06T23:28:42.509Z,13.63
2019-03-06T23:33:47.520Z,13.93
2019-03-06T23:38:53.042Z,16.60
2019-03-06T23:43:58.012Z,13.37
2019-03-06T23:49:03.111Z,14.63
2019-03-06T23:54:08.355Z,15.83
2019-03-06T23:59:13.366Z,12.70
